Time;durP1;ratioP1;P1;durP2;ratioP2;P2;SDS_P1;SDS_P2;PMS_P1;PMS_P2;Temp;Humidity;BMP_temperature;BMP_pressure;BME280_temperature;BME280_humidity;BME280_pressure;Samples;Min_cycle;Max_cycle;Signal;HPM_P1;HPM_P2
2024/03/20 00:00:05;;;;;;;9.43;8.53;;;9.40;99.90;;;;;;5011260;28;20524;-71
2024/03/20 00:02:30;;;;;;;11.30;9.33;;;9.40;99.90;;;;;;5015919;28;20175;-71
2024/03/20 00:04:56;;;;;;;9.63;8.73;;;9.30;99.90;;;;;;5023393;28;20468;-72
2024/03/20 00:07:22;;;;;;;8.57;7.70;;;9.20;99.90;;;;;;5012554;28;20217;-71
2024/03/20 00:09:47;;;;;;;10.67;8.40;;;9.20;99.90;;;;;;5021797;28;20573;-71
2024/03/20 00:12:13;;;;;;;10.60;7.77;;;9.20;99.90;;;;;;5020016;28;20432;-71
2024/03/20 00:14:38;;;;;;;9.40;8.30;;;9.20;99.90;;;;;;5012059;28;20305;-71
2024/03/20 00:17:04;;;;;;;12.00;10.83;;;9.20;99.90;;;;;;5013409;28;20701;-71
2024/03/20 00:19:29;;;;;;;9.57;8.67;;;9.20;99.90;;;;;;5028677;28;20280;-71
2024/03/20 00:21:55;;;;;;;9.60;8.70;;;9.20;99.90;;;;;;5016107;28;20225;-70
2024/03/20 00:24:20;;;;;;;11.13;8.60;;;9.20;99.90;;;;;;5019023;28;20585;-70
2024/03/20 00:26:47;;;;;;;11.83;9.10;;;9.20;99.90;;;;;;5020910;28;20182;-71
2024/03/20 00:29:13;;;;;;;9.37;8.47;;;9.10;99.90;;;;;;5018157;28;20191;-70
2024/03/20 00:31:38;;;;;;;9.90;8.97;;;9.10;99.90;;;;;;5024584;28;20420;-71
2024/03/20 00:34:04;;;;;;;12.60;9.37;;;9.10;99.90;;;;;;5024742;28;20993;-71
2024/03/20 00:36:31;;;;;;;9.90;9.00;;;9.20;99.90;;;;;;5017527;28;20225;-71
2024/03/20 00:38:56;;;;;;;9.80;8.77;;;9.10;99.90;;;;;;5026210;28;20281;-70
2024/03/20 00:41:22;;;;;;;9.00;8.10;;;9.10;99.90;;;;;;5030019;28;20515;-71
2024/03/20 00:43:47;;;;;;;10.43;8.93;;;9.10;99.90;;;;;;5030850;28;20178;-71
2024/03/20 00:46:13;;;;;;;10.80;9.70;;;9.00;99.90;;;;;;5019047;28;20679;-71
2024/03/20 00:48:38;;;;;;;9.40;8.40;;;9.00;99.90;;;;;;5017869;28;20572;-71
2024/03/20 00:51:04;;;;;;;9.90;9.00;;;8.90;99.90;;;;;;5023484;28;20182;-71
2024/03/20 00:53:30;;;;;;;9.23;8.33;;;8.90;99.90;;;;;;5021793;28;20633;-72
2024/03/20 00:55:55;;;;;;;9.90;9.00;;;8.80;99.90;;;;;;5012985;28;20179;-70
2024/03/20 00:58:21;;;;;;;10.23;9.33;;;8.80;99.90;;;;;;5020941;28;20210;-71
2024/03/20 01:00:46;;;;;;;9.93;8.93;;;8.80;99.90;;;;;;5022416;28;20253;-71
2024/03/20 01:03:13;;;;;;;9.73;8.83;;;8.80;99.90;;;;;;5030775;28;20186;-71
2024/03/20 01:05:39;;;;;;;9.60;8.67;;;8.80;99.90;;;;;;5021684;28;20203;-71
2024/03/20 01:08:05;;;;;;;10.73;9.60;;;8.80;99.90;;;;;;5015972;28;20551;-71
2024/03/20 01:10:30;;;;;;;8.83;7.80;;;8.80;99.90;;;;;;5022989;28;20171;-71
2024/03/20 01:12:56;;;;;;;9.93;9.03;;;8.70;99.90;;;;;;5015124;28;20515;-71
2024/03/20 01:15:21;;;;;;;15.23;9.43;;;8.70;99.90;;;;;;5021242;28;20248;-71
2024/03/20 01:17:47;;;;;;;11.00;9.90;;;8.60;99.90;;;;;;5023673;28;20201;-71
2024/03/20 01:20:13;;;;;;;10.60;9.60;;;8.60;99.90;;;;;;5018428;28;20186;-71
2024/03/20 01:22:38;;;;;;;10.50;8.90;;;8.60;99.90;;;;;;5027382;28;20257;-72
2024/03/20 01:25:05;;;;;;;12.00;9.73;;;8.60;99.90;;;;;;5017694;28;20783;-71
2024/03/20 01:27:30;;;;;;;12.10;9.70;;;8.60;99.90;;;;;;5019432;28;20292;-70
2024/03/20 01:29:56;;;;;;;15.20;9.87;;;8.60;99.90;;;;;;5025039;28;20437;-70
2024/03/20 01:32:21;;;;;;;10.90;9.80;;;8.50;99.90;;;;;;5029748;28;20186;-71
2024/03/20 01:34:47;;;;;;;9.63;8.73;;;8.50;99.90;;;;;;5034702;28;20193;-71
2024/03/20 01:37:13;;;;;;;10.83;9.77;;;8.50;99.90;;;;;;5013152;28;20194;-71
2024/03/20 01:39:38;;;;;;;10.80;9.23;;;8.50;99.90;;;;;;5020758;28;20621;-71
2024/03/20 01:42:04;;;;;;;11.17;9.97;;;8.50;99.90;;;;;;5027406;28;20531;-72
2024/03/20 01:44:30;;;;;;;11.23;10.03;;;8.50;99.90;;;;;;5024946;28;20199;-70
2024/03/20 01:46:55;;;;;;;11.50;9.37;;;8.50;99.90;;;;;;5016633;28;20945;-71
2024/03/20 01:49:21;;;;;;;9.10;8.33;;;8.40;99.90;;;;;;5024696;28;20686;-71
2024/03/20 01:51:47;;;;;;;10.63;9.67;;;8.40;99.90;;;;;;5032420;28;20236;-71
2024/03/20 01:54:14;;;;;;;11.50;9.97;;;8.30;99.90;;;;;;5031913;28;20181;-73
2024/03/20 01:56:42;;;;;;;16.67;15.13;;;8.30;99.90;;;;;;5016458;28;20244;-71
2024/03/20 01:59:09;;;;;;;11.80;10.60;;;8.20;99.90;;;;;;5021069;28;20465;-71
2024/03/20 02:01:34;;;;;;;13.97;11.40;;;8.20;99.90;;;;;;5022163;28;20853;-70
2024/03/20 02:04:02;;;;;;;12.07;10.77;;;8.20;99.90;;;;;;5029019;28;20568;-72
2024/03/20 02:06:28;;;;;;;11.17;9.93;;;8.10;99.90;;;;;;5012771;28;20256;-71
2024/03/20 02:08:56;;;;;;;11.90;10.70;;;8.10;99.90;;;;;;5013125;28;21049;-70
2024/03/20 02:11:24;;;;;;;9.97;8.80;;;8.10;99.90;;;;;;5018936;28;20420;-71
2024/03/20 02:13:55;;;;;;;11.40;9.53;;;8.10;99.90;;;;;;5025943;28;20507;-70
2024/03/20 02:16:21;;;;;;;11.90;10.70;;;8.00;99.90;;;;;;5016891;28;20422;-71
2024/03/20 02:18:48;;;;;;;11.33;10.17;;;8.00;99.90;;;;;;5014689;28;20461;-72
2024/03/20 02:21:22;;;;;;;11.20;10.10;;;8.00;99.90;;;;;;5016530;28;20437;-71
2024/03/20 02:23:51;;;;;;;11.20;10.00;;;8.00;99.90;;;;;;5030215;28;20433;-71
2024/03/20 02:26:17;;;;;;;11.37;10.47;;;8.00;99.90;;;;;;5031134;28;20977;-71
2024/03/20 02:28:44;;;;;;;10.27;9.27;;;7.90;99.90;;;;;;5021733;28;20484;-70
2024/03/20 02:31:11;;;;;;;11.40;9.67;;;7.90;99.90;;;;;;5019052;28;20484;-71
2024/03/20 02:33:38;;;;;;;10.87;8.73;;;7.90;99.90;;;;;;5028788;28;20422;-71
2024/03/20 02:36:05;;;;;;;9.50;8.70;;;7.90;99.90;;;;;;5022583;28;20429;-70
2024/03/20 02:38:35;;;;;;;10.97;9.53;;;7.90;99.90;;;;;;5012243;28;20848;-72
2024/03/20 02:41:01;;;;;;;10.90;9.10;;;7.90;99.90;;;;;;5014765;28;20429;-70
2024/03/20 02:43:27;;;;;;;10.47;9.47;;;7.80;99.90;;;;;;5016514;28;20433;-70
2024/03/20 02:45:54;;;;;;;10.47;9.47;;;7.80;99.90;;;;;;5021276;28;20467;-70
2024/03/20 02:48:19;;;;;;;10.53;9.47;;;7.80;99.90;;;;;;5023176;28;20457;-71
2024/03/20 02:50:45;;;;;;;11.97;10.87;;;7.80;99.90;;;;;;5020130;28;20430;-71
2024/03/20 02:53:10;;;;;;;11.13;10.03;;;7.80;99.90;;;;;;5024348;28;20667;-71
2024/03/20 02:55:39;;;;;;;10.70;9.63;;;7.80;99.90;;;;;;5031412;28;20249;-70
2024/03/20 02:58:05;;;;;;;12.57;10.80;;;7.80;99.90;;;;;;5022789;28;20215;-71
2024/03/20 03:00:31;;;;;;;9.90;9.00;;;7.80;99.90;;;;;;5016459;28;20872;-71
2024/03/20 03:02:58;;;;;;;10.30;9.27;;;7.80;99.90;;;;;;5014301;28;20277;-70
2024/03/20 03:05:24;;;;;;;10.87;9.80;;;7.80;99.90;;;;;;5029451;28;20972;-71
2024/03/20 03:07:50;;;;;;;9.57;8.70;;;7.80;99.90;;;;;;5024644;28;20456;-70
2024/03/20 03:10:16;;;;;;;17.70;15.90;;;7.80;99.90;;;;;;5025925;28;20432;-70
2024/03/20 03:12:43;;;;;;;13.20;11.90;;;7.80;99.90;;;;;;5013562;28;20525;-71
2024/03/20 03:15:09;;;;;;;11.27;10.17;;;7.80;99.90;;;;;;5025717;28;20439;-71
2024/03/20 03:17:35;;;;;;;13.93;10.20;;;7.80;99.90;;;;;;5029587;28;20485;-71
2024/03/20 03:20:01;;;;;;;12.57;11.37;;;7.80;99.90;;;;;;5017637;28;20434;-71
2024/03/20 03:22:26;;;;;;;12.33;11.10;;;7.80;99.90;;;;;;5022931;28;20835;-72
2024/03/20 03:24:52;;;;;;;11.83;10.47;;;7.80;99.90;;;;;;5012385;28;20241;-70
2024/03/20 03:27:17;;;;;;;11.60;9.70;;;7.80;99.90;;;;;;5014726;28;20253;-71
2024/03/20 03:29:43;;;;;;;12.80;9.40;;;7.80;99.90;;;;;;5018949;28;20183;-73
2024/03/20 03:32:08;;;;;;;11.60;9.77;;;7.80;99.90;;;;;;5013603;28;20178;-70
2024/03/20 03:34:34;;;;;;;12.40;9.13;;;7.80;99.90;;;;;;5019894;28;20175;-71
2024/03/20 03:36:59;;;;;;;15.00;10.60;;;7.80;99.90;;;;;;5015320;28;20190;-71
2024/03/20 03:39:25;;;;;;;14.30;9.90;;;7.80;99.90;;;;;;5014471;28;20238;-71
2024/03/20 03:41:51;;;;;;;8.67;7.83;;;7.80;99.90;;;;;;5015209;28;20186;-71
2024/03/20 03:44:16;;;;;;;9.73;8.57;;;7.80;99.90;;;;;;5026617;28;20209;-70
2024/03/20 03:46:42;;;;;;;13.03;11.73;;;7.80;99.90;;;;;;5015333;28;20183;-71
2024/03/20 03:49:08;;;;;;;11.50;10.20;;;7.80;99.90;;;;;;5026880;28;20671;-71
2024/03/20 03:51:34;;;;;;;10.50;9.40;;;7.80;99.90;;;;;;5025603;28;20220;-70
2024/03/20 03:54:00;;;;;;;10.10;9.10;;;7.80;99.90;;;;;;5029025;28;20453;-71
2024/03/20 03:56:25;;;;;;;12.67;11.30;;;7.70;99.90;;;;;;5024507;28;20178;-73
2024/03/20 03:58:51;;;;;;;13.67;10.20;;;7.80;99.90;;;;;;5027688;28;20218;-71
2024/03/20 04:01:16;;;;;;;9.83;8.13;;;7.80;99.90;;;;;;5014055;28;20220;-71
2024/03/20 04:03:42;;;;;;;10.53;9.60;;;7.70;99.90;;;;;;5024402;28;20268;-71
2024/03/20 04:06:07;;;;;;;9.33;8.43;;;7.60;99.90;;;;;;5017243;28;20206;-70
2024/03/20 04:08:33;;;;;;;8.67;7.97;;;7.60;99.90;;;;;;5023819;28;20239;-70
2024/03/20 04:10:59;;;;;;;8.80;8.10;;;7.50;99.90;;;;;;5026876;28;20184;-72
2024/03/20 04:13:24;;;;;;;10.47;8.40;;;7.60;99.90;;;;;;5027723;28;20174;-71
2024/03/20 04:15:52;;;;;;;7.80;7.10;;;7.60;99.90;;;;;;5013520;28;20181;-70
2024/03/20 04:18:18;;;;;;;9.17;8.37;;;7.60;99.90;;;;;;5011875;28;20237;-70
2024/03/20 04:20:44;;;;;;;8.90;8.10;;;7.50;99.90;;;;;;5011418;28;20465;-71
2024/03/20 04:23:10;;;;;;;9.00;8.13;;;7.40;99.90;;;;;;5015741;28;20433;-70
2024/03/20 04:25:35;;;;;;;25.30;21.43;;;7.40;99.90;;;;;;5017800;28;20207;-70
2024/03/20 04:28:02;;;;;;;20.37;14.40;;;7.40;99.90;;;;;;5011704;28;20203;-70
2024/03/20 04:30:27;;;;;;;10.93;9.83;;;7.30;99.90;;;;;;5026192;28;20196;-70
2024/03/20 04:32:53;;;;;;;8.13;7.33;;;7.40;99.90;;;;;;5014898;28;20792;-70
2024/03/20 04:35:19;;;;;;;9.67;7.37;;;7.40;99.90;;;;;;5023110;28;20261;-70
2024/03/20 04:37:44;;;;;;;9.33;7.20;;;7.40;99.90;;;;;;5009320;28;20202;-70
2024/03/20 04:40:10;;;;;;;8.93;8.03;;;7.40;99.90;;;;;;5013387;28;20194;-70
2024/03/20 04:42:36;;;;;;;9.03;7.93;;;7.40;99.90;;;;;;5015928;28;20193;-70
2024/03/20 04:45:01;;;;;;;7.93;7.10;;;7.30;99.90;;;;;;5020966;28;20575;-70
2024/03/20 04:47:27;;;;;;;11.30;8.87;;;7.30;99.90;;;;;;5006945;28;20652;-70
2024/03/20 04:49:52;;;;;;;11.50;8.40;;;7.30;99.90;;;;;;4999269;28;20252;-71
2024/03/20 04:52:18;;;;;;;10.27;9.03;;;7.30;99.90;;;;;;5014094;28;20235;-68
2024/03/20 04:54:44;;;;;;;7.67;7.00;;;7.30;99.90;;;;;;5028486;28;20185;-70
2024/03/20 04:57:09;;;;;;;10.33;7.20;;;7.30;99.90;;;;;;5019118;28;20198;-70
2024/03/20 04:59:35;;;;;;;8.80;7.90;;;7.20;99.90;;;;;;5022003;28;20216;-72
2024/03/20 05:02:00;;;;;;;8.63;7.77;;;7.20;99.90;;;;;;5011790;28;20202;-71
2024/03/20 05:04:26;;;;;;;8.80;7.90;;;7.20;99.90;;;;;;5013828;28;20198;-71
2024/03/20 05:06:51;;;;;;;8.83;7.93;;;7.20;99.90;;;;;;5018934;28;20187;-70
2024/03/20 05:09:17;;;;;;;11.63;8.57;;;7.20;99.90;;;;;;5025986;28;20660;-71
2024/03/20 05:11:42;;;;;;;9.40;8.10;;;7.20;99.90;;;;;;5023401;28;20175;-71
2024/03/20 05:14:08;;;;;;;8.00;7.23;;;7.20;99.90;;;;;;5017098;28;20233;-70
2024/03/20 05:16:33;;;;;;;8.93;7.80;;;7.10;99.90;;;;;;5013710;28;20187;-71
2024/03/20 05:18:59;;;;;;;8.90;7.10;;;7.10;99.90;;;;;;5011422;28;20199;-71
2024/03/20 05:21:24;;;;;;;10.00;8.30;;;7.10;99.90;;;;;;5013284;28;20210;-70
2024/03/20 05:23:50;;;;;;;8.93;8.03;;;7.00;99.90;;;;;;5015576;28;20212;-70
2024/03/20 05:26:16;;;;;;;12.37;9.30;;;7.10;99.90;;;;;;5023459;28;20225;-71
2024/03/20 05:28:41;;;;;;;8.97;8.07;;;7.20;99.90;;;;;;5020989;28;20199;-70
2024/03/20 05:31:07;;;;;;;11.90;7.47;;;7.20;99.90;;;;;;5014947;28;20778;-71
2024/03/20 05:33:33;;;;;;;9.20;8.40;;;7.10;99.90;;;;;;5023474;28;20644;-70
2024/03/20 05:35:58;;;;;;;9.40;8.47;;;7.10;99.90;;;;;;5014019;28;20175;-70
2024/03/20 05:38:24;;;;;;;9.10;8.30;;;7.10;99.90;;;;;;5014452;28;20264;-70
2024/03/20 05:40:50;;;;;;;8.63;7.80;;;7.20;99.90;;;;;;5027986;28;20220;-71
2024/03/20 05:43:15;;;;;;;9.93;8.50;;;7.20;99.90;;;;;;5012522;28;20213;-71
2024/03/20 05:45:41;;;;;;;13.10;10.07;;;7.20;99.90;;;;;;5020860;28;20206;-72
2024/03/20 05:48:07;;;;;;;11.70;10.13;;;7.30;99.90;;;;;;5031813;28;20704;-71
2024/03/20 05:50:34;;;;;;;13.67;10.00;;;7.20;99.90;;;;;;5014499;28;20179;-70
2024/03/20 05:52:59;;;;;;;11.53;10.40;;;7.30;99.90;;;;;;5021843;28;20185;-71
2024/03/20 05:55:25;;;;;;;10.80;9.20;;;7.40;99.90;;;;;;5021705;28;20434;-71
2024/03/20 05:57:51;;;;;;;14.27;10.43;;;7.50;99.90;;;;;;5023374;28;20209;-71
2024/03/20 06:00:20;;;;;;;11.93;10.83;;;7.50;99.90;;;;;;5025789;28;20233;-71
2024/03/20 06:02:47;;;;;;;16.17;10.77;;;7.60;99.90;;;;;;5021264;28;20186;-71
2024/03/20 06:05:14;;;;;;;11.37;10.13;;;7.70;99.90;;;;;;5016152;28;20506;-71
2024/03/20 06:07:40;;;;;;;11.27;10.13;;;7.70;99.90;;;;;;5021328;28;20984;-71
2024/03/20 06:10:08;;;;;;;17.53;11.13;;;7.80;99.90;;;;;;5013872;28;20500;-71
2024/03/20 06:12:34;;;;;;;14.53;12.93;;;7.90;99.90;;;;;;5021219;28;20181;-70
2024/03/20 06:15:00;;;;;;;13.20;11.33;;;7.90;99.90;;;;;;5013965;28;20426;-71
2024/03/20 06:17:25;;;;;;;10.93;9.83;;;8.00;99.90;;;;;;5014270;28;20180;-71
2024/03/20 06:19:51;;;;;;;11.17;9.73;;;8.10;99.90;;;;;;5013991;28;20421;-70
2024/03/20 06:22:17;;;;;;;11.33;9.70;;;8.30;99.90;;;;;;5012738;28;20183;-71
2024/03/20 06:24:42;;;;;;;11.20;10.17;;;8.40;99.90;;;;;;5028493;28;20518;-70
2024/03/20 06:27:08;;;;;;;12.70;10.10;;;8.60;99.90;;;;;;5012721;28;20861;-71
2024/03/20 06:29:33;;;;;;;14.63;10.63;;;8.80;99.90;;;;;;5011146;28;20234;-71
2024/03/20 06:31:59;;;;;;;12.33;10.37;;;9.10;99.90;;;;;;5018372;28;20179;-71
2024/03/20 06:34:25;;;;;;;15.03;9.37;;;9.30;99.90;;;;;;5020015;28;20167;-71
2024/03/20 06:36:50;;;;;;;9.40;8.40;;;9.50;99.90;;;;;;5011975;28;20426;-71
2024/03/20 06:39:16;;;;;;;11.50;8.63;;;9.70;99.90;;;;;;5023307;28;20619;-71
2024/03/20 06:41:44;;;;;;;12.13;8.87;;;9.90;99.90;;;;;;5026967;28;20702;-72
2024/03/20 06:44:13;;;;;;;10.53;9.27;;;10.00;99.90;;;;;;5016271;28;20171;-71
2024/03/20 06:46:38;;;;;;;10.13;8.77;;;10.20;99.90;;;;;;5024166;28;20456;-71
2024/03/20 06:49:09;;;;;;;9.93;8.50;;;10.30;99.90;;;;;;5018918;28;20906;-71
2024/03/20 06:51:38;;;;;;;10.10;8.90;;;10.30;99.90;;;;;;5020261;28;20302;-71
2024/03/20 06:54:16;;;;;;;11.93;9.70;;;10.30;99.90;;;;;;5017276;28;20444;-72
2024/03/20 06:56:48;;;;;;;11.73;9.30;;;10.30;99.90;;;;;;5019014;28;20953;-71
2024/03/20 06:59:16;;;;;;;12.43;10.40;;;10.50;99.90;;;;;;5026971;28;21092;-70
2024/03/20 07:01:41;;;;;;;11.13;10.03;;;10.70;99.90;;;;;;5019367;28;20772;-70
2024/03/20 07:04:07;;;;;;;10.93;9.83;;;10.80;99.90;;;;;;5019715;28;20515;-71
2024/03/20 07:06:32;;;;;;;11.30;10.30;;;11.00;99.90;;;;;;5025716;28;20241;-71
2024/03/20 07:08:58;;;;;;;10.33;9.30;;;11.30;99.90;;;;;;5017083;28;20199;-70
2024/03/20 07:11:23;;;;;;;11.57;9.30;;;11.50;99.90;;;;;;5017672;28;20185;-72
2024/03/20 07:13:49;;;;;;;11.67;9.30;;;11.70;99.90;;;;;;5023866;28;20170;-71
2024/03/20 07:16:14;;;;;;;11.37;9.63;;;11.80;99.90;;;;;;5030896;28;20185;-71
2024/03/20 07:18:40;;;;;;;10.00;8.93;;;11.90;99.90;;;;;;5012273;28;20676;-71
2024/03/20 07:21:05;;;;;;;10.90;9.80;;;12.00;99.90;;;;;;5026309;28;20701;-71
2024/03/20 07:23:31;;;;;;;9.63;8.73;;;12.10;99.90;;;;;;5025867;28;20186;-72
2024/03/20 07:25:56;;;;;;;10.63;8.93;;;12.10;99.90;;;;;;5021555;28;20207;-71
2024/03/20 07:28:22;;;;;;;11.33;9.70;;;12.20;99.90;;;;;;5024635;28;20564;-71
2024/03/20 07:30:49;;;;;;;13.47;10.30;;;12.40;99.90;;;;;;5008782;28;20278;-71
2024/03/20 07:33:14;;;;;;;9.67;8.77;;;12.60;99.90;;;;;;5019995;28;20879;-70
2024/03/20 07:35:47;;;;;;;10.73;9.37;;;12.80;99.90;;;;;;5026972;28;20224;-71
2024/03/20 07:38:13;;;;;;;12.27;9.57;;;13.10;99.90;;;;;;5031650;28;20190;-72
2024/03/20 07:40:40;;;;;;;13.63;10.80;;;13.50;99.90;;;;;;5020196;28;20456;-70
2024/03/20 07:43:07;;;;;;;10.23;9.07;;;13.80;99.90;;;;;;5021555;28;20441;-70
2024/03/20 07:45:33;;;;;;;8.93;8.07;;;14.10;99.90;;;;;;5014204;28;20819;-71
2024/03/20 07:47:59;;;;;;;7.40;6.80;;;14.40;99.90;;;;;;5020284;28;20442;-71
2024/03/20 07:50:26;;;;;;;8.40;7.60;;;14.60;99.90;;;;;;5013100;28;20448;-71
2024/03/20 07:52:52;;;;;;;8.70;7.90;;;14.70;99.90;;;;;;5012614;28;20178;-71
2024/03/20 07:55:17;;;;;;;7.17;6.60;;;15.00;99.90;;;;;;5021079;28;20444;-72
2024/03/20 07:57:43;;;;;;;7.30;6.60;;;15.30;99.90;;;;;;5018550;28;20621;-72
2024/03/20 08:00:15;;;;;;;4.83;4.43;;;15.50;99.90;;;;;;5012978;28;20202;-70
2024/03/20 08:02:44;;;;;;;4.63;4.30;;;15.60;99.90;;;;;;5008508;28;20184;-73
2024/03/20 08:05:12;;;;;;;5.83;4.63;;;15.60;99.90;;;;;;5014835;28;20488;-73
2024/03/20 08:07:41;;;;;;;4.80;4.40;;;15.50;99.90;;;;;;5022824;28;20836;-73
2024/03/20 08:10:08;;;;;;;4.37;3.97;;;15.50;99.90;;;;;;5023683;28;20446;-72
2024/03/20 08:12:34;;;;;;;6.00;5.40;;;15.80;99.90;;;;;;5016859;28;20525;-71
2024/03/20 08:15:00;;;;;;;8.70;3.90;;;16.00;99.90;;;;;;5017196;28;20516;-72
2024/03/20 08:17:25;;;;;;;4.27;3.87;;;16.00;99.90;;;;;;5014787;28;20209;-72
2024/03/20 08:19:51;;;;;;;3.77;3.47;;;16.10;99.90;;;;;;5023915;28;20433;-71
2024/03/20 08:22:16;;;;;;;5.93;4.60;;;16.00;99.90;;;;;;5020025;28;20201;-72
2024/03/20 08:24:43;;;;;;;4.70;4.30;;;16.30;99.90;;;;;;5017685;28;20206;-73
2024/03/20 08:27:09;;;;;;;4.87;4.57;;;17.30;99.90;;;;;;5027621;28;20174;-72
2024/03/20 08:29:35;;;;;;;6.00;5.60;;;17.90;99.90;;;;;;5013442;28;20505;-71
2024/03/20 08:32:00;;;;;;;7.17;4.17;;;17.90;99.90;;;;;;5013388;28;20447;-73
2024/03/20 08:34:27;;;;;;;4.57;4.27;;;18.60;99.90;;;;;;5019571;28;21049;-71
2024/03/20 08:36:52;;;;;;;6.47;3.80;;;19.00;99.90;;;;;;5027161;28;20220;-71
2024/03/20 08:39:18;;;;;;;4.43;4.13;;;19.60;99.90;;;;;;5027600;28;20456;-71
2024/03/20 08:41:44;;;;;;;4.60;3.73;;;20.30;94.20;;;;;;5016845;28;20788;-71
2024/03/20 08:44:10;;;;;;;4.20;3.90;;;20.70;89.50;;;;;;5017038;28;20186;-70
2024/03/20 08:46:41;;;;;;;4.20;3.90;;;20.80;87.20;;;;;;5007261;28;20211;-70
2024/03/20 08:49:06;;;;;;;4.10;3.70;;;20.60;83.60;;;;;;5020442;28;20468;-71
2024/03/20 08:51:32;;;;;;;3.90;3.60;;;19.30;86.80;;;;;;5015944;28;20433;-71
2024/03/20 08:53:57;;;;;;;4.20;3.80;;;18.80;88.50;;;;;;5009361;28;20218;-71
2024/03/20 08:56:23;;;;;;;9.03;8.17;;;18.60;90.20;;;;;;5013094;28;20183;-71
2024/03/20 08:58:50;;;;;;;4.27;3.97;;;18.90;88.40;;;;;;5021972;28;20213;-71
2024/03/20 09:01:16;;;;;;;4.00;3.50;;;19.50;87.20;;;;;;5015128;28;20794;-71
2024/03/20 09:03:42;;;;;;;3.40;3.10;;;19.90;83.20;;;;;;5021269;28;20960;-71
2024/03/20 09:06:08;;;;;;;3.93;3.63;;;20.60;80.00;;;;;;5019374;28;20453;-71
2024/03/20 09:08:34;;;;;;;5.03;3.73;;;20.50;78.00;;;;;;5019647;28;20205;-71
2024/03/20 09:10:59;;;;;;;4.20;3.43;;;20.30;77.40;;;;;;5025290;28;20429;-71
2024/03/20 09:13:28;;;;;;;4.30;3.90;;;20.20;79.00;;;;;;5020443;28;20671;-71
2024/03/20 09:15:54;;;;;;;5.33;4.10;;;20.50;76.30;;;;;;5021909;28;20183;-71
2024/03/20 09:18:19;;;;;;;3.60;3.40;;;21.10;73.30;;;;;;5020835;28;20518;-71
2024/03/20 09:20:46;;;;;;;3.73;3.43;;;21.20;71.50;;;;;;5020230;28;20179;-71
2024/03/20 09:23:12;;;;;;;6.87;3.77;;;21.20;70.50;;;;;;5022924;28;20265;-71
2024/03/20 09:25:37;;;;;;;3.30;3.00;;;21.80;68.90;;;;;;5021724;28;20540;-71
2024/03/20 09:28:03;;;;;;;4.13;3.83;;;22.40;61.70;;;;;;5017278;28;20241;-74
2024/03/20 09:30:29;;;;;;;3.60;3.30;;;22.10;59.90;;;;;;5023393;28;20538;-74
2024/03/20 09:32:54;;;;;;;4.83;4.30;;;22.50;60.30;;;;;;5014853;28;20249;-74
2024/03/20 09:35:20;;;;;;;6.87;3.00;;;22.60;58.50;;;;;;5015834;28;20188;-73
2024/03/20 09:37:46;;;;;;;2.87;2.67;;;23.90;57.70;;;;;;5018628;28;20187;-74
2024/03/20 09:40:14;;;;;;;3.80;2.93;;;24.90;52.90;;;;;;5018062;28;20484;-74
2024/03/20 09:42:40;;;;;;;3.83;3.10;;;25.20;50.30;;;;;;5025212;28;20662;-74
2024/03/20 09:45:08;;;;;;;3.20;2.90;;;24.30;49.40;;;;;;5020550;28;20553;-74
2024/03/20 09:47:35;;;;;;;3.57;3.27;;;24.10;48.80;;;;;;5010164;28;20308;-74
2024/03/20 09:50:01;;;;;;;3.40;2.73;;;23.50;49.80;;;;;;5011411;28;20453;-74
2024/03/20 09:52:29;;;;;;;3.00;2.80;;;23.50;49.60;;;;;;5016213;28;20437;-74
2024/03/20 09:54:55;;;;;;;3.60;3.30;;;24.70;48.90;;;;;;5017094;28;20968;-74
2024/03/20 09:57:24;;;;;;;3.07;2.87;;;25.70;46.20;;;;;;5010730;28;20790;-73
2024/03/20 09:59:52;;;;;;;3.47;2.90;;;27.10;42.30;;;;;;5024374;28;20480;-74
2024/03/20 10:02:18;;;;;;;2.90;2.67;;;27.80;40.00;;;;;;5022871;28;20433;-74
2024/03/20 10:04:44;;;;;;;3.70;3.40;;;26.60;38.20;;;;;;5016270;28;21152;-74
2024/03/20 10:07:14;;;;;;;3.23;2.93;;;27.10;39.30;;;;;;5012747;28;20520;-73
2024/03/20 10:09:41;;;;;;;5.90;2.87;;;27.40;37.40;;;;;;5017358;28;20441;-74
2024/03/20 10:12:08;;;;;;;4.23;3.50;;;28.00;36.60;;;;;;5020830;28;20421;-73
2024/03/20 10:14:35;;;;;;;3.87;3.57;;;26.40;36.40;;;;;;5010886;28;20456;-73
2024/03/20 10:17:27;;;;;;;3.07;2.77;;;25.30;36.10;;;;;;5022553;28;20472;-73
2024/03/20 10:19:52;;;;;;;2.73;2.60;;;25.50;37.30;;;;;;5029304;28;20446;-73
2024/03/20 10:22:18;;;;;;;2.90;2.53;;;25.80;36.00;;;;;;5022885;28;20521;-74
2024/03/20 10:24:44;;;;;;;3.40;3.10;;;25.90;36.10;;;;;;5013542;28;20276;-73
2024/03/20 10:27:12;;;;;;;3.90;3.50;;;24.60;37.90;;;;;;5013087;28;20879;-73
2024/03/20 10:29:39;;;;;;;3.67;3.47;;;24.00;39.20;;;;;;5026204;28;20457;-73
2024/03/20 10:32:06;;;;;;;5.13;3.30;;;25.10;38.80;;;;;;5013170;28;20472;-73
2024/03/20 10:34:33;;;;;;;3.17;2.80;;;26.10;37.20;;;;;;5014503;28;20434;-73
2024/03/20 10:36:59;;;;;;;6.83;2.80;;;25.60;37.10;;;;;;5011112;28;20429;-74
2024/03/20 10:39:27;;;;;;;2.93;2.63;;;25.60;37.50;;;;;;5011451;28;20464;-74
2024/03/20 10:41:54;;;;;;;2.83;2.63;;;25.80;35.10;;;;;;5027930;28;20631;-73
2024/03/20 10:44:21;;;;;;;2.63;2.53;;;26.90;34.70;;;;;;5023101;28;20860;-74
2024/03/20 10:46:51;;;;;;;3.10;2.90;;;28.00;33.10;;;;;;5007025;28;20963;-73
2024/03/20 10:49:22;;;;;;;4.57;3.10;;;29.00;32.60;;;;;;5008055;28;20449;-73
2024/03/20 10:51:49;;;;;;;3.70;3.30;;;29.40;31.20;;;;;;5009718;28;20521;-74
2024/03/20 10:54:15;;;;;;;3.60;3.40;;;30.30;30.00;;;;;;5013162;28;20433;-73
2024/03/20 10:56:48;;;;;;;2.90;2.70;;;30.50;28.90;;;;;;5007097;28;20434;-73
2024/03/20 10:59:16;;;;;;;6.20;3.13;;;30.50;28.50;;;;;;5019262;28;20913;-73
2024/03/20 11:02:03;;;;;;;3.63;3.43;;;30.20;29.00;;;;;;5013696;28;20503;-73
2024/03/20 11:04:39;;;;;;;3.53;3.23;;;29.00;29.10;;;;;;5008069;28;20950;-73
2024/03/20 11:07:24;;;;;;;3.27;2.80;;;29.60;27.80;;;;;;5017944;28;20436;-74
2024/03/20 11:09:52;;;;;;;3.50;3.03;;;30.90;27.40;;;;;;5010416;28;20464;-71
2024/03/20 11:12:33;;;;;;;3.20;2.90;;;31.40;26.20;;;;;;5010051;28;20437;-71
2024/03/20 11:15:02;;;;;;;2.33;2.20;;;31.20;26.10;;;;;;5008490;28;20480;-70
2024/03/20 11:17:27;;;;;;;2.40;2.20;;;30.50;26.00;;;;;;5010379;28;20437;-70
2024/03/20 11:19:57;;;;;;;2.53;2.33;;;29.60;25.30;;;;;;5008932;28;20811;-71
2024/03/20 11:22:24;;;;;;;2.70;2.00;;;29.50;25.70;;;;;;5003828;28;20187;-71
2024/03/20 11:24:54;;;;;;;3.03;2.70;;;28.30;25.80;;;;;;5007381;28;20468;-71
2024/03/20 11:27:22;;;;;;;2.80;2.60;;;27.80;27.20;;;;;;5006111;28;20445;-71
2024/03/20 11:29:48;;;;;;;2.70;2.50;;;27.70;28.00;;;;;;5010251;28;20444;-71
2024/03/20 11:32:16;;;;;;;3.67;2.60;;;27.80;27.00;;;;;;5010735;28;20442;-71
2024/03/20 11:34:42;;;;;;;10.40;5.10;;;27.20;28.20;;;;;;5014147;28;20604;-71
2024/03/20 11:37:19;;;;;;;44.30;17.83;;;28.00;27.90;;;;;;5006950;28;20810;-70
2024/03/20 11:39:45;;;;;;;195.40;143.60;;;28.10;28.00;;;;;;5006142;28;20582;-69
2024/03/20 11:42:15;;;;;;;15.60;13.23;;;27.90;28.00;;;;;;5009505;28;20429;-69
2024/03/20 11:44:41;;;;;;;39.03;32.67;;;26.30;28.10;;;;;;5008923;28;20802;-71
2024/03/20 11:47:13;;;;;;;18.67;14.87;;;26.40;29.10;;;;;;5008188;28;20454;-67
2024/03/20 11:49:46;;;;;;;12.77;11.30;;;26.20;29.10;;;;;;5018531;28;20425;-68
2024/03/20 11:52:17;;;;;;;12.20;7.63;;;26.40;28.90;;;;;;5013420;28;20421;-70
2024/03/20 11:54:46;;;;;;;10.90;4.70;;;27.40;28.70;;;;;;5018082;28;20474;-74
2024/03/20 11:57:14;;;;;;;5.17;4.50;;;27.70;28.00;;;;;;5017562;28;20422;-70
2024/03/20 11:59:47;;;;;;;10.63;9.60;;;26.70;27.80;;;;;;5010321;23;20492;-68
2024/03/20 12:02:14;;;;;;;7.30;4.50;;;27.60;28.00;;;;;;4991966;28;20862;-68
2024/03/20 12:04:41;;;;;;;6.07;4.93;;;28.30;27.00;;;;;;4990370;28;21040;-68
2024/03/20 12:07:27;;;;;;;8.90;7.77;;;29.10;27.00;;;;;;4983389;28;20450;-67
2024/03/20 12:09:52;;;;;;;4.03;2.63;;;30.30;26.40;;;;;;4994784;28;20458;-67
2024/03/20 12:12:23;;;;;;;6.83;4.17;;;29.20;25.40;;;;;;4984487;28;20431;-67
2024/03/20 12:14:49;;;;;;;4.60;3.80;;;29.60;25.70;;;;;;4992337;28;20176;-67
2024/03/20 12:17:15;;;;;;;4.50;3.43;;;28.60;25.80;;;;;;4990165;28;20442;-67
2024/03/20 12:19:41;;;;;;;3.30;3.03;;;28.30;25.80;;;;;;4988642;28;20983;-67
2024/03/20 12:22:12;;;;;;;4.90;3.13;;;29.90;25.60;;;;;;4992373;28;20438;-67
2024/03/20 12:24:37;;;;;;;5.67;5.17;;;30.40;24.80;;;;;;4991694;28;20653;-67
2024/03/20 12:27:04;;;;;;;2.83;2.60;;;31.80;24.10;;;;;;4989861;28;20534;-67
2024/03/20 12:29:30;;;;;;;2.43;2.23;;;32.30;23.50;;;;;;4993227;28;20195;-68
2024/03/20 12:31:56;;;;;;;3.83;3.23;;;32.80;23.00;;;;;;4994692;28;20438;-67
2024/03/20 12:34:22;;;;;;;5.67;5.17;;;32.60;22.60;;;;;;4996142;28;20633;-67
2024/03/20 12:36:47;;;;;;;2.70;2.50;;;32.50;22.70;;;;;;4990602;28;20203;-67
2024/03/20 12:39:13;;;;;;;3.83;3.47;;;32.40;22.40;;;;;;4992501;28;20212;-66
2024/03/20 12:41:39;;;;;;;3.70;3.40;;;32.30;22.60;;;;;;4995237;28;20183;-65